createdAt,value
2022-08-05T00:01:20.207Z,4.57
2022-08-05T00:11:24.026Z,3.83
2022-08-05T00:21:35.989Z,5.43
2022-08-05T00:31:53.028Z,4.80
2022-08-05T00:41:57.097Z,3.75
2022-08-05T00:51:59.433Z,5.55
2022-08-05T01:02:01.816Z,4.20
2022-08-05T01:12:18.218Z,3.83
2022-08-05T01:22:34.102Z,3.38
2022-08-05T01:32:40.900Z,6.20
2022-08-05T01:42:51.163Z,5.45
2022-08-05T01:52:55.992Z,5.10
2022-08-05T02:03:04.501Z,6.30
2022-08-05T02:13:19.000Z,5.35
2022-08-05T02:23:29.276Z,4.65
2022-08-05T02:33:40.708Z,4.30
2022-08-05T02:44:05.966Z,4.57
2022-08-05T02:54:35.592Z,3.38
2022-08-05T03:04:36.385Z,4.18
2022-08-05T03:14:46.122Z,3.47
2022-08-05T03:24:52.239Z,3.28
2022-08-05T03:34:54.862Z,4.57
2022-08-05T03:44:57.414Z,4.35
2022-08-05T03:56:01.972Z,4.07
2022-08-05T04:05:34.076Z,3.83
2022-08-05T04:15:37.039Z,3.75
2022-08-05T04:25:56.693Z,4.05
2022-08-05T04:36:11.187Z,4.68
2022-08-05T04:46:27.949Z,4.65
2022-08-05T04:56:34.876Z,4.18
2022-08-05T05:06:49.377Z,4.32
2022-08-05T05:17:01.090Z,3.60
2022-08-05T05:27:04.138Z,3.70
2022-08-05T05:47:21.399Z,4.80
2022-08-05T05:57:24.582Z,4.10
2022-08-05T06:07:57.535Z,4.35
2022-08-05T06:18:03.828Z,4.13
2022-08-05T06:28:12.050Z,4.03
2022-08-05T06:38:36.487Z,4.25
2022-08-05T06:48:55.760Z,4.00
2022-08-05T06:59:01.545Z,4.60
2022-08-05T07:09:04.948Z,4.70
2022-08-05T07:19:07.301Z,4.72
2022-08-05T07:29:10.496Z,4.70
2022-08-05T07:39:24.704Z,4.50
2022-08-05T07:49:43.497Z,4.65
2022-08-05T07:59:57.622Z,4.32
2022-08-05T08:10:00.174Z,4.88
2022-08-05T08:20:21.617Z,3.67
2022-08-05T08:30:40.751Z,3.83
2022-08-05T08:40:51.688Z,3.90
2022-08-05T08:51:22.465Z,3.95
2022-08-05T09:01:18.854Z,3.58
2022-08-05T09:11:51.698Z,3.55
2022-08-05T09:22:23.073Z,3.20
2022-08-05T09:32:51.218Z,3.10
2022-08-05T09:42:42.176Z,2.53
2022-08-05T09:52:57.980Z,2.60
2022-08-05T10:03:09.969Z,3.03
2022-08-05T10:13:25.794Z,2.78
2022-08-05T10:23:58.754Z,2.80
2022-08-05T10:42:33.882Z,2.97
2022-08-05T10:52:54.021Z,3.10
2022-08-05T11:03:25.285Z,2.80
2022-08-05T11:13:54.944Z,3.05
2022-08-05T11:24:29.799Z,2.90
2022-08-05T11:34:51.446Z,3.00
2022-08-05T11:45:05.455Z,2.78
2022-08-05T11:55:10.610Z,2.60
2022-08-05T12:05:36.478Z,2.70
2022-08-05T12:15:49.836Z,2.72
2022-08-05T12:25:56.969Z,2.90
2022-08-05T12:46:03.864Z,2.88
2022-08-05T12:56:35.365Z,3.30
2022-08-05T13:06:51.575Z,3.33
2022-08-05T13:16:57.012Z,3.03
2022-08-05T13:26:59.898Z,2.85
2022-08-05T13:37:04.055Z,2.63
2022-08-05T13:47:09.770Z,2.60
2022-08-05T13:57:14.938Z,2.70
2022-08-05T14:07:26.514Z,3.00
2022-08-05T14:17:45.803Z,3.33
2022-08-05T14:27:51.580Z,3.30
2022-08-05T14:37:55.680Z,3.08
2022-08-05T14:48:05.455Z,2.75
2022-08-05T14:58:13.707Z,2.67
2022-08-05T15:08:58.463Z,2.70
2022-08-05T15:18:39.695Z,2.95
2022-08-05T15:38:47.075Z,2.75
2022-08-05T15:48:57.958Z,3.10
2022-08-05T15:59:07.401Z,2.65
2022-08-05T16:09:10.164Z,3.40
2022-08-05T16:19:25.475Z,2.97
2022-08-05T16:29:37.344Z,3.10
2022-08-05T16:40:05.567Z,3.33
2022-08-05T16:50:06.954Z,4.65
2022-08-05T17:00:14.266Z,5.60
2022-08-05T17:20:33.729Z,4.22
2022-08-05T17:30:42.496Z,4.32
2022-08-05T17:40:52.818Z,5.00
2022-08-05T17:50:55.678Z,6.57
2022-08-05T18:00:58.660Z,5.32
2022-08-05T18:11:04.071Z,4.65
2022-08-05T18:21:13.407Z,4.85
2022-08-05T18:31:24.132Z,4.43
2022-08-05T18:41:53.481Z,4.70
2022-08-05T18:52:10.831Z,5.38
2022-08-05T19:02:28.210Z,4.80
2022-08-05T19:12:39.150Z,5.20
2022-08-05T19:22:44.795Z,4.72
2022-08-05T19:32:48.106Z,5.30
2022-08-05T19:43:04.607Z,5.63
2022-08-05T19:53:10.442Z,4.95
2022-08-05T20:03:14.034Z,5.55
2022-08-05T20:13:17.741Z,5.32
2022-08-05T20:23:20.902Z,4.95
2022-08-05T20:33:23.776Z,5.40
2022-08-05T20:43:39.814Z,5.30
2022-08-05T20:53:56.185Z,5.32
2022-08-05T21:03:59.677Z,5.70
2022-08-05T21:14:02.691Z,6.25
2022-08-05T21:24:07.410Z,5.78
2022-08-05T21:34:16.054Z,5.82
2022-08-05T21:44:18.865Z,5.93
2022-08-05T21:54:30.818Z,6.70
2022-08-05T22:04:33.623Z,7.35
2022-08-05T22:14:37.905Z,6.53
2022-08-05T22:24:59.534Z,6.40
2022-08-05T22:35:02.269Z,6.72
2022-08-05T22:45:07.076Z,6.38
2022-08-05T22:55:19.149Z,6.97
2022-08-05T23:05:23.898Z,7.00
2022-08-05T23:15:35.364Z,6.72
2022-08-05T23:25:51.550Z,6.70
2022-08-05T23:35:56.700Z,6.93
2022-08-05T23:45:59.711Z,7.20
2022-08-05T23:56:03.675Z,6.43
